LLHA/HFA METAR and TAF weather

Enter ICAO airport designator
Station Type Date Time Source
LLHA METAR 2020/07/05 04:00 UTC NOAA

LLHA 050400Z 24006KT 9000 VCFG FEW010 26/22 Q1003


Station Type Date Time Source
LLHA Decoded METAR 2020/07/05 04:00 UTC NOAA

Sde-Haifa Haifa, Israel (LLHA) 32-48N 035-02E 8M
Jul 05, 2020 - 12:00 AM EDT / 2020.07.05 0400 UTC
Wind: from the WSW (240 degrees) at 7 MPH (6 KT):0
Visibility: 5 mile(s):0
Sky conditions: mostly clear
Weather: fog in the vicinity
Temperature: 78 F (26 C)
Dew Point: 71 F (22 C)
Relative Humidity: 78%
Pressure (altimeter): 29.62 in. Hg (1003 hPa)
ob: LLHA 050400Z 24006KT 9000 VCFG FEW010 26/22 Q1003
cycle: 4

Station Type Date Time Source
LLHA TAF 2020/07/04 18:00 UTC NOAA

TAF LLHA 041708Z 0418/0518 29006KT 9999 SCT020
TEMPO 0418/0420 BKN015
BECMG 0422/0424 23006KT
BECMG 0504/0506 SCT025
TEMPO 0506/0510 BKN020
BECMG 0510/0512 28010KT SCT020 TX30/0512Z TN23/0503Z

Example: see airport list